sensor_id;sensor_type;location;lat;lon;timestamp;P1;durP1;ratioP1;P2;durP2;ratioP2
37483;SDS011;23337;52.212;9.926;2022-11-14T00:00:26;46.53;;;28.30;;
37483;SDS011;23337;52.212;9.926;2022-11-14T00:02:52;45.47;;;28.87;;
37483;SDS011;23337;52.212;9.926;2022-11-14T00:05:18;46.80;;;28.27;;
37483;SDS011;23337;52.212;9.926;2022-11-14T00:07:44;42.97;;;27.93;;
37483;SDS011;23337;52.212;9.926;2022-11-14T00:10:11;45.30;;;26.70;;
37483;SDS011;23337;52.212;9.926;2022-11-14T00:12:38;49.10;;;29.40;;
37483;SDS011;23337;52.212;9.926;2022-11-14T00:15:04;50.43;;;28.50;;
37483;SDS011;23337;52.212;9.926;2022-11-14T00:17:30;48.03;;;29.53;;
37483;SDS011;23337;52.212;9.926;2022-11-14T00:19:56;54.40;;;30.00;;
37483;SDS011;23337;52.212;9.926;2022-11-14T00:22:22;50.33;;;28.60;;
37483;SDS011;23337;52.212;9.926;2022-11-14T00:24:48;53.00;;;29.40;;
37483;SDS011;23337;52.212;9.926;2022-11-14T00:27:14;51.90;;;30.90;;
37483;SDS011;23337;52.212;9.926;2022-11-14T00:29:40;43.50;;;27.67;;
37483;SDS011;23337;52.212;9.926;2022-11-14T00:32:06;51.23;;;29.23;;
37483;SDS011;23337;52.212;9.926;2022-11-14T00:34:32;52.47;;;30.03;;
37483;SDS011;23337;52.212;9.926;2022-11-14T00:36:58;46.70;;;28.63;;
37483;SDS011;23337;52.212;9.926;2022-11-14T00:39:24;51.07;;;31.17;;
37483;SDS011;23337;52.212;9.926;2022-11-14T00:41:50;48.90;;;30.27;;
37483;SDS011;23337;52.212;9.926;2022-11-14T00:44:16;48.90;;;29.47;;
37483;SDS011;23337;52.212;9.926;2022-11-14T00:46:42;44.17;;;27.47;;
37483;SDS011;23337;52.212;9.926;2022-11-14T00:49:09;48.43;;;30.07;;
37483;SDS011;23337;52.212;9.926;2022-11-14T00:51:35;50.73;;;31.97;;
37483;SDS011;23337;52.212;9.926;2022-11-14T00:54:01;49.77;;;29.33;;
37483;SDS011;23337;52.212;9.926;2022-11-14T00:56:27;45.80;;;29.23;;
37483;SDS011;23337;52.212;9.926;2022-11-14T00:58:53;53.40;;;31.17;;
37483;SDS011;23337;52.212;9.926;2022-11-14T01:01:19;51.33;;;32.77;;
37483;SDS011;23337;52.212;9.926;2022-11-14T01:03:48;52.33;;;32.17;;
37483;SDS011;23337;52.212;9.926;2022-11-14T01:06:15;52.30;;;31.33;;
37483;SDS011;23337;52.212;9.926;2022-11-14T01:08:41;52.87;;;31.43;;
37483;SDS011;23337;52.212;9.926;2022-11-14T01:11:08;50.93;;;32.83;;
37483;SDS011;23337;52.212;9.926;2022-11-14T01:13:35;53.27;;;30.57;;
37483;SDS011;23337;52.212;9.926;2022-11-14T01:16:00;49.40;;;31.83;;
37483;SDS011;23337;52.212;9.926;2022-11-14T01:18:26;52.07;;;31.07;;
37483;SDS011;23337;52.212;9.926;2022-11-14T01:20:53;51.00;;;31.37;;
37483;SDS011;23337;52.212;9.926;2022-11-14T01:23:19;46.27;;;29.10;;
37483;SDS011;23337;52.212;9.926;2022-11-14T01:25:45;47.93;;;30.47;;
37483;SDS011;23337;52.212;9.926;2022-11-14T01:28:11;46.40;;;29.93;;
37483;SDS011;23337;52.212;9.926;2022-11-14T01:30:38;49.37;;;30.20;;
37483;SDS011;23337;52.212;9.926;2022-11-14T01:33:04;49.73;;;29.27;;
37483;SDS011;23337;52.212;9.926;2022-11-14T01:35:31;48.57;;;29.27;;
37483;SDS011;23337;52.212;9.926;2022-11-14T01:37:57;48.87;;;28.87;;
37483;SDS011;23337;52.212;9.926;2022-11-14T01:40:23;46.10;;;29.20;;
37483;SDS011;23337;52.212;9.926;2022-11-14T01:48:17;52.23;;;30.77;;
37483;SDS011;23337;52.212;9.926;2022-11-14T01:50:44;47.67;;;28.70;;
37483;SDS011;23337;52.212;9.926;2022-11-14T01:53:10;47.57;;;29.07;;
37483;SDS011;23337;52.212;9.926;2022-11-14T01:55:36;46.70;;;28.77;;
37483;SDS011;23337;52.212;9.926;2022-11-14T01:58:02;41.27;;;29.00;;
37483;SDS011;23337;52.212;9.926;2022-11-14T02:00:28;40.30;;;26.57;;
37483;SDS011;23337;52.212;9.926;2022-11-14T02:02:54;42.30;;;27.43;;
37483;SDS011;23337;52.212;9.926;2022-11-14T02:05:20;41.63;;;26.53;;
37483;SDS011;23337;52.212;9.926;2022-11-14T02:07:46;44.63;;;29.00;;
37483;SDS011;23337;52.212;9.926;2022-11-14T02:10:18;36.70;;;25.60;;
37483;SDS011;23337;52.212;9.926;2022-11-14T02:12:44;40.77;;;27.23;;
37483;SDS011;23337;52.212;9.926;2022-11-14T02:15:10;41.60;;;26.23;;
37483;SDS011;23337;52.212;9.926;2022-11-14T02:17:36;36.77;;;25.40;;
37483;SDS011;23337;52.212;9.926;2022-11-14T02:22:29;44.20;;;27.87;;
37483;SDS011;23337;52.212;9.926;2022-11-14T02:24:54;44.80;;;27.93;;
37483;SDS011;23337;52.212;9.926;2022-11-14T02:27:20;37.50;;;25.30;;
37483;SDS011;23337;52.212;9.926;2022-11-14T02:29:46;39.30;;;26.17;;
37483;SDS011;23337;52.212;9.926;2022-11-14T02:32:12;43.43;;;25.90;;
37483;SDS011;23337;52.212;9.926;2022-11-14T02:34:38;43.00;;;27.33;;
37483;SDS011;23337;52.212;9.926;2022-11-14T02:37:05;39.57;;;25.70;;
37483;SDS011;23337;52.212;9.926;2022-11-14T02:39:31;40.60;;;25.33;;
37483;SDS011;23337;52.212;9.926;2022-11-14T02:41:57;39.40;;;26.17;;
37483;SDS011;23337;52.212;9.926;2022-11-14T02:44:23;42.67;;;27.07;;
37483;SDS011;23337;52.212;9.926;2022-11-14T02:46:48;36.53;;;25.47;;
37483;SDS011;23337;52.212;9.926;2022-11-14T02:49:14;42.93;;;26.77;;
37483;SDS011;23337;52.212;9.926;2022-11-14T02:51:40;33.60;;;24.73;;
37483;SDS011;23337;52.212;9.926;2022-11-14T02:54:07;39.33;;;25.47;;
37483;SDS011;23337;52.212;9.926;2022-11-14T02:56:33;35.47;;;24.27;;
37483;SDS011;23337;52.212;9.926;2022-11-14T02:58:59;38.93;;;24.23;;
37483;SDS011;23337;52.212;9.926;2022-11-14T03:01:24;36.07;;;24.87;;
37483;SDS011;23337;52.212;9.926;2022-11-14T03:03:50;40.70;;;24.93;;
37483;SDS011;23337;52.212;9.926;2022-11-14T03:06:16;38.57;;;25.73;;
37483;SDS011;23337;52.212;9.926;2022-11-14T03:08:42;37.00;;;24.93;;
37483;SDS011;23337;52.212;9.926;2022-11-14T03:11:08;39.10;;;26.50;;
37483;SDS011;23337;52.212;9.926;2022-11-14T03:13:35;37.33;;;23.20;;
37483;SDS011;23337;52.212;9.926;2022-11-14T03:16:04;35.53;;;23.73;;
37483;SDS011;23337;52.212;9.926;2022-11-14T03:18:31;37.23;;;24.67;;
37483;SDS011;23337;52.212;9.926;2022-11-14T03:21:03;38.43;;;24.97;;
37483;SDS011;23337;52.212;9.926;2022-11-14T03:23:29;38.63;;;24.80;;
37483;SDS011;23337;52.212;9.926;2022-11-14T03:25:57;37.23;;;23.57;;
37483;SDS011;23337;52.212;9.926;2022-11-14T03:28:23;36.83;;;25.03;;
37483;SDS011;23337;52.212;9.926;2022-11-14T03:30:49;38.10;;;26.83;;
37483;SDS011;23337;52.212;9.926;2022-11-14T03:33:15;37.17;;;26.70;;
37483;SDS011;23337;52.212;9.926;2022-11-14T03:35:42;40.67;;;26.37;;
37483;SDS011;23337;52.212;9.926;2022-11-14T03:38:08;38.77;;;25.73;;
37483;SDS011;23337;52.212;9.926;2022-11-14T03:40:33;35.27;;;23.97;;
37483;SDS011;23337;52.212;9.926;2022-11-14T03:42:59;40.00;;;26.93;;
37483;SDS011;23337;52.212;9.926;2022-11-14T03:45:25;38.07;;;24.93;;
37483;SDS011;23337;52.212;9.926;2022-11-14T03:47:53;38.70;;;25.80;;
37483;SDS011;23337;52.212;9.926;2022-11-14T03:50:19;35.13;;;23.53;;
37483;SDS011;23337;52.212;9.926;2022-11-14T03:52:47;37.07;;;26.43;;
37483;SDS011;23337;52.212;9.926;2022-11-14T03:55:13;38.20;;;23.63;;
37483;SDS011;23337;52.212;9.926;2022-11-14T03:57:39;37.83;;;24.50;;
37483;SDS011;23337;52.212;9.926;2022-11-14T04:00:05;33.07;;;21.67;;
37483;SDS011;23337;52.212;9.926;2022-11-14T04:02:31;37.80;;;24.70;;
37483;SDS011;23337;52.212;9.926;2022-11-14T04:04:57;38.13;;;24.97;;
37483;SDS011;23337;52.212;9.926;2022-11-14T04:07:23;39.50;;;25.93;;
37483;SDS011;23337;52.212;9.926;2022-11-14T04:09:49;38.97;;;24.57;;
37483;SDS011;23337;52.212;9.926;2022-11-14T04:12:16;40.37;;;26.40;;
37483;SDS011;23337;52.212;9.926;2022-11-14T04:14:42;44.30;;;27.07;;
37483;SDS011;23337;52.212;9.926;2022-11-14T04:17:08;38.83;;;26.50;;
37483;SDS011;23337;52.212;9.926;2022-11-14T04:19:34;43.97;;;28.30;;
37483;SDS011;23337;52.212;9.926;2022-11-14T04:22:00;44.90;;;26.80;;
37483;SDS011;23337;52.212;9.926;2022-11-14T04:24:26;37.93;;;26.60;;
37483;SDS011;23337;52.212;9.926;2022-11-14T04:26:52;44.17;;;27.77;;
37483;SDS011;23337;52.212;9.926;2022-11-14T04:29:18;36.37;;;23.63;;
37483;SDS011;23337;52.212;9.926;2022-11-14T04:31:44;37.40;;;25.27;;
37483;SDS011;23337;52.212;9.926;2022-11-14T04:34:10;35.10;;;22.77;;
37483;SDS011;23337;52.212;9.926;2022-11-14T04:36:36;32.37;;;22.17;;
37483;SDS011;23337;52.212;9.926;2022-11-14T04:39:02;35.50;;;22.20;;
37483;SDS011;23337;52.212;9.926;2022-11-14T04:41:28;39.50;;;23.97;;
37483;SDS011;23337;52.212;9.926;2022-11-14T04:43:53;37.10;;;24.27;;
37483;SDS011;23337;52.212;9.926;2022-11-14T04:46:20;39.53;;;25.83;;
37483;SDS011;23337;52.212;9.926;2022-11-14T04:48:46;45.77;;;28.30;;
37483;SDS011;23337;52.212;9.926;2022-11-14T04:51:12;40.37;;;25.20;;
37483;SDS011;23337;52.212;9.926;2022-11-14T04:53:38;43.63;;;27.13;;
37483;SDS011;23337;52.212;9.926;2022-11-14T04:56:04;45.20;;;27.63;;
37483;SDS011;23337;52.212;9.926;2022-11-14T04:58:30;48.90;;;27.40;;
37483;SDS011;23337;52.212;9.926;2022-11-14T05:00:56;41.63;;;26.00;;
37483;SDS011;23337;52.212;9.926;2022-11-14T05:03:22;40.20;;;26.47;;
37483;SDS011;23337;52.212;9.926;2022-11-14T05:05:48;46.80;;;28.03;;
37483;SDS011;23337;52.212;9.926;2022-11-14T05:08:14;41.27;;;26.63;;
37483;SDS011;23337;52.212;9.926;2022-11-14T05:10:43;48.20;;;27.07;;
37483;SDS011;23337;52.212;9.926;2022-11-14T05:13:10;40.60;;;25.47;;
37483;SDS011;23337;52.212;9.926;2022-11-14T05:15:36;40.20;;;25.30;;
37483;SDS011;23337;52.212;9.926;2022-11-14T05:18:02;39.83;;;24.50;;
37483;SDS011;23337;52.212;9.926;2022-11-14T05:20:28;35.47;;;23.10;;
37483;SDS011;23337;52.212;9.926;2022-11-14T05:22:54;34.97;;;23.33;;
37483;SDS011;23337;52.212;9.926;2022-11-14T05:25:22;39.60;;;24.03;;
37483;SDS011;23337;52.212;9.926;2022-11-14T05:27:48;35.70;;;24.00;;
37483;SDS011;23337;52.212;9.926;2022-11-14T05:30:14;33.57;;;22.47;;
37483;SDS011;23337;52.212;9.926;2022-11-14T05:32:40;35.83;;;23.90;;
37483;SDS011;23337;52.212;9.926;2022-11-14T05:35:06;37.20;;;24.17;;
37483;SDS011;23337;52.212;9.926;2022-11-14T05:37:33;41.13;;;25.63;;
37483;SDS011;23337;52.212;9.926;2022-11-14T05:39:59;39.43;;;24.13;;
37483;SDS011;23337;52.212;9.926;2022-11-14T05:42:28;38.50;;;24.73;;
37483;SDS011;23337;52.212;9.926;2022-11-14T05:44:54;39.83;;;24.73;;
37483;SDS011;23337;52.212;9.926;2022-11-14T05:47:19;40.37;;;24.20;;
37483;SDS011;23337;52.212;9.926;2022-11-14T05:49:45;39.13;;;25.43;;
37483;SDS011;23337;52.212;9.926;2022-11-14T05:52:54;37.37;;;24.50;;
37483;SDS011;23337;52.212;9.926;2022-11-14T05:55:01;40.23;;;23.90;;
37483;SDS011;23337;52.212;9.926;2022-11-14T05:57:30;39.07;;;24.50;;
37483;SDS011;23337;52.212;9.926;2022-11-14T05:59:56;36.07;;;22.73;;
37483;SDS011;23337;52.212;9.926;2022-11-14T06:02:22;37.40;;;23.80;;
37483;SDS011;23337;52.212;9.926;2022-11-14T06:04:48;38.90;;;24.13;;
37483;SDS011;23337;52.212;9.926;2022-11-14T06:07:14;37.23;;;22.30;;
37483;SDS011;23337;52.212;9.926;2022-11-14T06:09:40;32.00;;;21.03;;
37483;SDS011;23337;52.212;9.926;2022-11-14T06:12:06;35.87;;;23.10;;
37483;SDS011;23337;52.212;9.926;2022-11-14T06:14:32;34.37;;;22.60;;
37483;SDS011;23337;52.212;9.926;2022-11-14T06:16:58;34.47;;;22.80;;
37483;SDS011;23337;52.212;9.926;2022-11-14T06:19:24;33.90;;;23.70;;
37483;SDS011;23337;52.212;9.926;2022-11-14T06:21:50;37.17;;;23.03;;
37483;SDS011;23337;52.212;9.926;2022-11-14T06:24:16;35.53;;;21.47;;
37483;SDS011;23337;52.212;9.926;2022-11-14T06:26:42;31.00;;;21.47;;
37483;SDS011;23337;52.212;9.926;2022-11-14T06:29:08;34.97;;;22.30;;
37483;SDS011;23337;52.212;9.926;2022-11-14T06:31:34;32.17;;;21.77;;
37483;SDS011;23337;52.212;9.926;2022-11-14T06:34:00;33.97;;;22.47;;
37483;SDS011;23337;52.212;9.926;2022-11-14T06:36:26;34.77;;;23.17;;
37483;SDS011;23337;52.212;9.926;2022-11-14T06:38:54;37.03;;;24.03;;
37483;SDS011;23337;52.212;9.926;2022-11-14T06:41:20;34.77;;;22.63;;
37483;SDS011;23337;52.212;9.926;2022-11-14T06:43:47;39.77;;;24.70;;
37483;SDS011;23337;52.212;9.926;2022-11-14T06:46:14;37.70;;;23.70;;
37483;SDS011;23337;52.212;9.926;2022-11-14T06:48:41;38.87;;;24.13;;
37483;SDS011;23337;52.212;9.926;2022-11-14T06:51:08;38.50;;;23.43;;
37483;SDS011;23337;52.212;9.926;2022-11-14T06:53:35;38.10;;;23.30;;
37483;SDS011;23337;52.212;9.926;2022-11-14T06:56:11;37.30;;;23.93;;
37483;SDS011;23337;52.212;9.926;2022-11-14T06:58:39;35.97;;;22.13;;
37483;SDS011;23337;52.212;9.926;2022-11-14T07:01:12;35.77;;;23.57;;
37483;SDS011;23337;52.212;9.926;2022-11-14T07:03:40;34.67;;;23.30;;
37483;SDS011;23337;52.212;9.926;2022-11-14T07:06:06;34.17;;;22.13;;
37483;SDS011;23337;52.212;9.926;2022-11-14T07:08:32;36.67;;;23.17;;
37483;SDS011;23337;52.212;9.926;2022-11-14T07:11:08;46.47;;;24.00;;
37483;SDS011;23337;52.212;9.926;2022-11-14T07:13:35;40.40;;;23.97;;
37483;SDS011;23337;52.212;9.926;2022-11-14T07:16:01;33.17;;;22.93;;
37483;SDS011;23337;52.212;9.926;2022-11-14T07:18:30;35.53;;;22.80;;
37483;SDS011;23337;52.212;9.926;2022-11-14T07:21:01;36.43;;;24.47;;
37483;SDS011;23337;52.212;9.926;2022-11-14T07:23:27;34.23;;;22.97;;
37483;SDS011;23337;52.212;9.926;2022-11-14T07:25:53;37.50;;;23.27;;
37483;SDS011;23337;52.212;9.926;2022-11-14T07:28:19;33.93;;;23.00;;
37483;SDS011;23337;52.212;9.926;2022-11-14T07:30:45;35.57;;;24.20;;
37483;SDS011;23337;52.212;9.926;2022-11-14T07:33:11;34.17;;;22.17;;
37483;SDS011;23337;52.212;9.926;2022-11-14T07:35:38;37.07;;;22.33;;
37483;SDS011;23337;52.212;9.926;2022-11-14T07:38:04;38.00;;;23.93;;
37483;SDS011;23337;52.212;9.926;2022-11-14T07:40:30;34.70;;;21.70;;
37483;SDS011;23337;52.212;9.926;2022-11-14T07:42:56;36.53;;;22.70;;
37483;SDS011;23337;52.212;9.926;2022-11-14T07:45:23;38.03;;;24.23;;
37483;SDS011;23337;52.212;9.926;2022-11-14T07:47:49;36.47;;;23.47;;
37483;SDS011;23337;52.212;9.926;2022-11-14T07:50:18;36.00;;;23.70;;
37483;SDS011;23337;52.212;9.926;2022-11-14T07:52:48;38.90;;;25.77;;
37483;SDS011;23337;52.212;9.926;2022-11-14T07:55:14;35.10;;;22.97;;
37483;SDS011;23337;52.212;9.926;2022-11-14T07:57:40;37.77;;;24.53;;
37483;SDS011;23337;52.212;9.926;2022-11-14T08:00:06;35.13;;;22.57;;
37483;SDS011;23337;52.212;9.926;2022-11-14T08:02:32;33.17;;;21.83;;
37483;SDS011;23337;52.212;9.926;2022-11-14T08:04:58;35.07;;;22.90;;
37483;SDS011;23337;52.212;9.926;2022-11-14T08:07:25;39.33;;;24.13;;
37483;SDS011;23337;52.212;9.926;2022-11-14T08:09:51;33.90;;;22.83;;
37483;SDS011;23337;52.212;9.926;2022-11-14T08:12:17;38.97;;;24.03;;
37483;SDS011;23337;52.212;9.926;2022-11-14T08:14:43;35.73;;;23.10;;
37483;SDS011;23337;52.212;9.926;2022-11-14T08:17:09;35.77;;;22.60;;
37483;SDS011;23337;52.212;9.926;2022-11-14T08:19:34;35.10;;;23.17;;
37483;SDS011;23337;52.212;9.926;2022-11-14T08:22:00;33.90;;;21.97;;
37483;SDS011;23337;52.212;9.926;2022-11-14T08:24:26;34.83;;;21.43;;
37483;SDS011;23337;52.212;9.926;2022-11-14T08:26:52;34.03;;;22.00;;
37483;SDS011;23337;52.212;9.926;2022-11-14T08:29:18;37.47;;;22.73;;
37483;SDS011;23337;52.212;9.926;2022-11-14T08:31:45;37.00;;;23.83;;
37483;SDS011;23337;52.212;9.926;2022-11-14T08:34:11;36.60;;;24.03;;
37483;SDS011;23337;52.212;9.926;2022-11-14T08:36:37;34.90;;;23.07;;
37483;SDS011;23337;52.212;9.926;2022-11-14T08:39:03;36.73;;;23.50;;
37483;SDS011;23337;52.212;9.926;2022-11-14T08:41:29;38.97;;;22.97;;
37483;SDS011;23337;52.212;9.926;2022-11-14T08:43:55;38.50;;;24.60;;
37483;SDS011;23337;52.212;9.926;2022-11-14T08:46:21;38.70;;;24.07;;
37483;SDS011;23337;52.212;9.926;2022-11-14T08:48:47;32.13;;;22.20;;
37483;SDS011;23337;52.212;9.926;2022-11-14T08:51:13;35.20;;;22.47;;
37483;SDS011;23337;52.212;9.926;2022-11-14T08:53:39;35.80;;;22.83;;
37483;SDS011;23337;52.212;9.926;2022-11-14T08:56:05;31.93;;;22.03;;
37483;SDS011;23337;52.212;9.926;2022-11-14T08:58:31;38.47;;;23.57;;
37483;SDS011;23337;52.212;9.926;2022-11-14T09:01:01;34.67;;;22.97;;
37483;SDS011;23337;52.212;9.926;2022-11-14T09:03:29;33.10;;;23.90;;
37483;SDS011;23337;52.212;9.926;2022-11-14T09:05:55;33.20;;;21.57;;
37483;SDS011;23337;52.212;9.926;2022-11-14T09:08:21;35.67;;;22.93;;
37483;SDS011;23337;52.212;9.926;2022-11-14T09:10:47;35.90;;;24.03;;
37483;SDS011;23337;52.212;9.926;2022-11-14T09:13:13;35.43;;;22.63;;
37483;SDS011;23337;52.212;9.926;2022-11-14T09:15:39;38.63;;;24.73;;
37483;SDS011;23337;52.212;9.926;2022-11-14T09:18:05;32.70;;;22.07;;
37483;SDS011;23337;52.212;9.926;2022-11-14T09:20:31;35.77;;;23.67;;
37483;SDS011;23337;52.212;9.926;2022-11-14T09:22:57;34.10;;;21.97;;
37483;SDS011;23337;52.212;9.926;2022-11-14T09:25:23;29.77;;;20.80;;
37483;SDS011;23337;52.212;9.926;2022-11-14T09:27:50;33.47;;;22.90;;
37483;SDS011;23337;52.212;9.926;2022-11-14T09:30:16;30.33;;;20.50;;
37483;SDS011;23337;52.212;9.926;2022-11-14T09:32:42;33.23;;;22.33;;
37483;SDS011;23337;52.212;9.926;2022-11-14T09:35:09;33.57;;;21.93;;
37483;SDS011;23337;52.212;9.926;2022-11-14T09:37:36;34.40;;;21.47;;
37483;SDS011;23337;52.212;9.926;2022-11-14T09:40:03;33.17;;;21.03;;
37483;SDS011;23337;52.212;9.926;2022-11-14T09:42:36;33.83;;;22.20;;
37483;SDS011;23337;52.212;9.926;2022-11-14T09:45:11;32.43;;;21.40;;
37483;SDS011;23337;52.212;9.926;2022-11-14T09:47:39;34.10;;;23.70;;
37483;SDS011;23337;52.212;9.926;2022-11-14T09:55:17;32.30;;;21.33;;
37483;SDS011;23337;52.212;9.926;2022-11-14T09:57:44;30.50;;;21.63;;
37483;SDS011;23337;52.212;9.926;2022-11-14T10:00:17;35.97;;;21.53;;
37483;SDS011;23337;52.212;9.926;2022-11-14T10:05:33;33.57;;;21.80;;
37483;SDS011;23337;52.212;9.926;2022-11-14T10:10:44;30.47;;;20.93;;
37483;SDS011;23337;52.212;9.926;2022-11-14T10:13:23;31.33;;;21.80;;
37483;SDS011;23337;52.212;9.926;2022-11-14T10:15:53;31.10;;;21.33;;
37483;SDS011;23337;52.212;9.926;2022-11-14T10:20:57;31.37;;;22.33;;
37483;SDS011;23337;52.212;9.926;2022-11-14T10:23:33;30.63;;;21.20;;
37483;SDS011;23337;52.212;9.926;2022-11-14T10:28:52;31.23;;;21.83;;
37483;SDS011;23337;52.212;9.926;2022-11-14T10:31:33;31.57;;;21.03;;
37483;SDS011;23337;52.212;9.926;2022-11-14T10:34:05;31.93;;;21.77;;
37483;SDS011;23337;52.212;9.926;2022-11-14T10:39:22;31.70;;;21.83;;
37483;SDS011;23337;52.212;9.926;2022-11-14T10:41:50;32.67;;;23.23;;
37483;SDS011;23337;52.212;9.926;2022-11-14T10:44:17;30.17;;;21.90;;
37483;SDS011;23337;52.212;9.926;2022-11-14T10:46:46;29.13;;;22.10;;
37483;SDS011;23337;52.212;9.926;2022-11-14T10:49:14;31.33;;;21.43;;
37483;SDS011;23337;52.212;9.926;2022-11-14T10:51:45;29.13;;;20.07;;
37483;SDS011;23337;52.212;9.926;2022-11-14T10:56:47;29.60;;;20.40;;
37483;SDS011;23337;52.212;9.926;2022-11-14T10:59:13;32.80;;;21.73;;
37483;SDS011;23337;52.212;9.926;2022-11-14T11:01:43;30.27;;;21.00;;
37483;SDS011;23337;52.212;9.926;2022-11-14T11:06:56;27.33;;;20.37;;
37483;SDS011;23337;52.212;9.926;2022-11-14T11:09:23;25.30;;;19.13;;
37483;SDS011;23337;52.212;9.926;2022-11-14T11:12:13;28.70;;;20.50;;
37483;SDS011;23337;52.212;9.926;2022-11-14T11:14:40;28.33;;;20.20;;
37483;SDS011;23337;52.212;9.926;2022-11-14T11:17:06;29.90;;;20.63;;
37483;SDS011;23337;52.212;9.926;2022-11-14T11:19:32;31.80;;;21.47;;
37483;SDS011;23337;52.212;9.926;2022-11-14T11:21:58;30.07;;;20.43;;
37483;SDS011;23337;52.212;9.926;2022-11-14T11:24:34;31.60;;;22.27;;
37483;SDS011;23337;52.212;9.926;2022-11-14T11:27:20;30.03;;;19.97;;
37483;SDS011;23337;52.212;9.926;2022-11-14T11:32:32;29.37;;;20.97;;
37483;SDS011;23337;52.212;9.926;2022-11-14T11:34:59;28.23;;;19.37;;
37483;SDS011;23337;52.212;9.926;2022-11-14T11:39:55;26.50;;;18.97;;
37483;SDS011;23337;52.212;9.926;2022-11-14T11:42:26;26.43;;;19.37;;
37483;SDS011;23337;52.212;9.926;2022-11-14T11:44:56;28.77;;;20.13;;
37483;SDS011;23337;52.212;9.926;2022-11-14T11:47:24;27.67;;;19.73;;
37483;SDS011;23337;52.212;9.926;2022-11-14T11:49:51;31.47;;;20.53;;
37483;SDS011;23337;52.212;9.926;2022-11-14T11:54:55;27.73;;;20.53;;
37483;SDS011;23337;52.212;9.926;2022-11-14T11:57:27;28.73;;;20.13;;
37483;SDS011;23337;52.212;9.926;2022-11-14T11:59:56;22.80;;;18.27;;
37483;SDS011;23337;52.212;9.926;2022-11-14T12:02:24;23.60;;;18.00;;
37483;SDS011;23337;52.212;9.926;2022-11-14T12:04:51;26.27;;;19.77;;
37483;SDS011;23337;52.212;9.926;2022-11-14T12:07:18;25.00;;;18.47;;
37483;SDS011;23337;52.212;9.926;2022-11-14T12:09:45;28.00;;;19.67;;
37483;SDS011;23337;52.212;9.926;2022-11-14T12:14:59;23.30;;;19.27;;
37483;SDS011;23337;52.212;9.926;2022-11-14T12:25:01;26.87;;;20.07;;
37483;SDS011;23337;52.212;9.926;2022-11-14T12:30:11;27.43;;;20.13;;
37483;SDS011;23337;52.212;9.926;2022-11-14T12:32:49;27.60;;;19.87;;
37483;SDS011;23337;52.212;9.926;2022-11-14T12:35:24;28.90;;;21.00;;
37483;SDS011;23337;52.212;9.926;2022-11-14T12:37:51;26.13;;;19.80;;
37483;SDS011;23337;52.212;9.926;2022-11-14T12:40:26;31.43;;;21.27;;
37483;SDS011;23337;52.212;9.926;2022-11-14T12:42:53;24.63;;;18.23;;
37483;SDS011;23337;52.212;9.926;2022-11-14T12:48:20;24.03;;;18.20;;
37483;SDS011;23337;52.212;9.926;2022-11-14T12:50:46;24.20;;;18.57;;
37483;SDS011;23337;52.212;9.926;2022-11-14T13:04:08;28.33;;;21.03;;
37483;SDS011;23337;52.212;9.926;2022-11-14T13:11:50;25.40;;;20.47;;
37483;SDS011;23337;52.212;9.926;2022-11-14T13:14:51;25.20;;;21.23;;
37483;SDS011;23337;52.212;9.926;2022-11-14T13:17:36;26.37;;;21.33;;
37483;SDS011;23337;52.212;9.926;2022-11-14T13:23:52;32.13;;;22.40;;
37483;SDS011;23337;52.212;9.926;2022-11-14T13:33:44;27.03;;;21.07;;
37483;SDS011;23337;52.212;9.926;2022-11-14T13:36:15;31.07;;;22.03;;
37483;SDS011;23337;52.212;9.926;2022-11-14T13:44:22;28.00;;;21.50;;
37483;SDS011;23337;52.212;9.926;2022-11-14T13:52:04;31.57;;;23.47;;
37483;SDS011;23337;52.212;9.926;2022-11-14T13:54:30;28.50;;;21.97;;
37483;SDS011;23337;52.212;9.926;2022-11-14T13:57:14;28.73;;;23.10;;
37483;SDS011;23337;52.212;9.926;2022-11-14T14:02:24;32.27;;;22.90;;
37483;SDS011;23337;52.212;9.926;2022-11-14T14:04:58;30.53;;;24.03;;
37483;SDS011;23337;52.212;9.926;2022-11-14T14:10:22;33.13;;;25.73;;
37483;SDS011;23337;52.212;9.926;2022-11-14T14:12:58;31.10;;;24.17;;
37483;SDS011;23337;52.212;9.926;2022-11-14T14:15:35;30.33;;;24.90;;
37483;SDS011;23337;52.212;9.926;2022-11-14T14:18:19;36.27;;;24.63;;
37483;SDS011;23337;52.212;9.926;2022-11-14T14:20:57;32.10;;;24.97;;
37483;SDS011;23337;52.212;9.926;2022-11-14T14:23:36;32.73;;;24.53;;
37483;SDS011;23337;52.212;9.926;2022-11-14T14:28:45;33.47;;;25.37;;
37483;SDS011;23337;52.212;9.926;2022-11-14T14:31:16;33.80;;;25.20;;
37483;SDS011;23337;52.212;9.926;2022-11-14T14:33:50;30.53;;;23.90;;
37483;SDS011;23337;52.212;9.926;2022-11-14T14:38:42;32.47;;;24.87;;
37483;SDS011;23337;52.212;9.926;2022-11-14T14:41:09;33.83;;;26.73;;
37483;SDS011;23337;52.212;9.926;2022-11-14T14:43:35;33.33;;;25.27;;
37483;SDS011;23337;52.212;9.926;2022-11-14T14:46:01;34.70;;;25.33;;
37483;SDS011;23337;52.212;9.926;2022-11-14T14:48:30;35.50;;;26.60;;
37483;SDS011;23337;52.212;9.926;2022-11-14T14:50:58;34.87;;;26.07;;
37483;SDS011;23337;52.212;9.926;2022-11-14T14:53:29;36.00;;;24.60;;
37483;SDS011;23337;52.212;9.926;2022-11-14T15:03:22;35.93;;;26.57;;
37483;SDS011;23337;52.212;9.926;2022-11-14T15:05:55;33.30;;;24.80;;
37483;SDS011;23337;52.212;9.926;2022-11-14T15:08:22;36.30;;;25.20;;
37483;SDS011;23337;52.212;9.926;2022-11-14T15:10:48;34.50;;;26.07;;
37483;SDS011;23337;52.212;9.926;2022-11-14T15:13:14;38.17;;;26.43;;
37483;SDS011;23337;52.212;9.926;2022-11-14T15:15:40;32.57;;;25.97;;
37483;SDS011;23337;52.212;9.926;2022-11-14T15:18:07;35.10;;;25.70;;
37483;SDS011;23337;52.212;9.926;2022-11-14T15:20:33;40.10;;;26.83;;
37483;SDS011;23337;52.212;9.926;2022-11-14T15:23:03;38.57;;;26.50;;
37483;SDS011;23337;52.212;9.926;2022-11-14T15:25:30;36.27;;;25.53;;
37483;SDS011;23337;52.212;9.926;2022-11-14T15:27:56;30.70;;;24.70;;
37483;SDS011;23337;52.212;9.926;2022-11-14T15:30:27;32.97;;;26.13;;
37483;SDS011;23337;52.212;9.926;2022-11-14T15:32:59;31.07;;;24.60;;
37483;SDS011;23337;52.212;9.926;2022-11-14T15:37:58;36.60;;;24.83;;
37483;SDS011;23337;52.212;9.926;2022-11-14T15:40:24;32.10;;;24.60;;
37483;SDS011;23337;52.212;9.926;2022-11-14T15:42:50;32.50;;;23.80;;
37483;SDS011;23337;52.212;9.926;2022-11-14T15:45:20;30.73;;;23.67;;
37483;SDS011;23337;52.212;9.926;2022-11-14T15:47:46;34.97;;;24.63;;
37483;SDS011;23337;52.212;9.926;2022-11-14T15:52:50;33.07;;;24.23;;
37483;SDS011;23337;52.212;9.926;2022-11-14T15:55:19;29.27;;;22.70;;
37483;SDS011;23337;52.212;9.926;2022-11-14T15:57:45;31.63;;;24.27;;
37483;SDS011;23337;52.212;9.926;2022-11-14T16:00:14;30.87;;;22.33;;
37483;SDS011;23337;52.212;9.926;2022-11-14T16:02:48;28.67;;;22.27;;
37483;SDS011;23337;52.212;9.926;2022-11-14T16:05:16;31.80;;;21.97;;
37483;SDS011;23337;52.212;9.926;2022-11-14T16:07:43;30.63;;;23.77;;
37483;SDS011;23337;52.212;9.926;2022-11-14T16:10:12;27.50;;;21.57;;
37483;SDS011;23337;52.212;9.926;2022-11-14T16:12:38;32.93;;;22.43;;
37483;SDS011;23337;52.212;9.926;2022-11-14T16:15:04;29.33;;;23.97;;
37483;SDS011;23337;52.212;9.926;2022-11-14T16:17:33;29.87;;;22.40;;
37483;SDS011;23337;52.212;9.926;2022-11-14T16:20:02;26.13;;;21.90;;